createdAt,value
2023-03-02T00:01:10.178Z,0.00
2023-03-02T00:03:39.887Z,0.09
2023-03-02T00:06:07.863Z,0.06
2023-03-02T00:08:35.494Z,0.02
2023-03-02T00:11:02.551Z,-0.03
2023-03-02T00:13:30.832Z,-0.08
2023-03-02T00:15:57.548Z,-0.05
2023-03-02T00:18:24.858Z,-0.02
2023-03-02T00:20:51.443Z,0.03
2023-03-02T00:23:18.007Z,0.07
2023-03-02T00:25:44.801Z,0.09
2023-03-02T00:28:11.401Z,0.22
2023-03-02T00:30:39.132Z,0.34
2023-03-02T00:33:05.651Z,0.35
2023-03-02T00:35:37.511Z,0.31
2023-03-02T00:38:04.115Z,0.34
2023-03-02T00:40:30.759Z,0.27
2023-03-02T00:42:57.311Z,0.24
2023-03-02T00:45:24.223Z,0.24
2023-03-02T00:47:51.020Z,0.15
2023-03-02T00:50:17.627Z,0.12
2023-03-02T00:52:44.322Z,-0.01
2023-03-02T00:55:10.956Z,-0.15
2023-03-02T00:57:37.536Z,-0.23
2023-03-02T01:00:05.183Z,-0.32
2023-03-02T01:02:32.037Z,-0.41
2023-03-02T01:04:58.696Z,-0.45
2023-03-02T01:07:26.278Z,-0.48
2023-03-02T01:09:53.155Z,-0.53
2023-03-02T01:12:20.027Z,-0.54
2023-03-02T01:14:48.903Z,-0.56
2023-03-02T01:17:15.887Z,-0.55
2023-03-02T01:19:42.927Z,-0.53
2023-03-02T01:22:10.176Z,-0.53
2023-03-02T01:24:37.157Z,-0.55
2023-03-02T01:27:04.169Z,-0.59
2023-03-02T01:29:30.804Z,-0.64
2023-03-02T01:31:57.643Z,-0.67
2023-03-02T01:34:24.464Z,-0.67
2023-03-02T01:36:51.209Z,-0.68
2023-03-02T01:39:17.844Z,-0.75
2023-03-02T01:41:46.190Z,-0.81
2023-03-02T01:44:37.440Z,-0.86
2023-03-02T01:47:39.801Z,-0.95
2023-03-02T01:50:20.974Z,-1.04
2023-03-02T01:52:49.459Z,-1.11
2023-03-02T01:55:29.340Z,-1.19
2023-03-02T01:57:58.729Z,-1.30
2023-03-02T02:00:29.979Z,-1.38
2023-03-02T02:03:09.156Z,-1.44
2023-03-02T02:05:41.372Z,-1.57
2023-03-02T02:08:08.469Z,-1.68
2023-03-02T02:10:35.805Z,-1.80
2023-03-02T02:13:02.973Z,-1.89
2023-03-02T02:15:29.966Z,-2.00
2023-03-02T02:17:56.602Z,-2.09
2023-03-02T02:20:40.546Z,-2.23
2023-03-02T02:23:30.077Z,-2.40
2023-03-02T02:26:03.953Z,-2.47
2023-03-02T02:28:33.259Z,-2.55
2023-03-02T02:31:37.932Z,-2.61
2023-03-02T02:34:14.188Z,-2.71
2023-03-02T02:36:44.557Z,-2.82
2023-03-02T02:39:17.962Z,-2.87
2023-03-02T02:41:47.603Z,-2.85
2023-03-02T02:46:49.532Z,-3.03
2023-03-02T02:49:29.226Z,-3.16
2023-03-02T02:51:56.077Z,-3.27
2023-03-02T02:54:23.745Z,-3.30
2023-03-02T03:04:49.763Z,-3.24
2023-03-02T03:10:23.484Z,-3.14
2023-03-02T03:12:51.473Z,-3.14
2023-03-02T03:15:19.912Z,-3.06
2023-03-02T03:17:57.144Z,-3.08
2023-03-02T03:20:25.149Z,-3.13
2023-03-02T03:22:55.141Z,-3.23
2023-03-02T03:25:25.328Z,-3.18
2023-03-02T03:27:51.971Z,-3.20
2023-03-02T03:30:18.576Z,-3.29
2023-03-02T03:32:45.199Z,-3.32
2023-03-02T03:35:12.546Z,-3.26
2023-03-02T04:04:04.697Z,-3.89
2023-03-02T04:06:31.852Z,-3.94
2023-03-02T04:09:04.507Z,-4.09
2023-03-02T04:14:07.148Z,-4.31
2023-03-02T04:16:34.539Z,-4.30
2023-03-02T04:19:01.450Z,-4.21
2023-03-02T04:21:28.367Z,-4.26
2023-03-02T04:23:55.593Z,-4.33
2023-03-02T04:26:22.265Z,-4.50
2023-03-02T04:34:12.223Z,-4.79
2023-03-02T04:36:40.440Z,-4.77
2023-03-02T04:39:08.639Z,-4.82
2023-03-02T04:41:35.485Z,-4.89
2023-03-02T04:59:45.145Z,-5.24
2023-03-02T05:02:11.821Z,-5.23
2023-03-02T05:34:20.867Z,-4.96
2023-03-02T05:42:04.378Z,-5.09
2023-03-02T05:44:30.881Z,-5.02
2023-03-02T05:46:57.507Z,-4.95
2023-03-02T05:49:24.252Z,-4.84
2023-03-02T05:51:50.779Z,-4.78
2023-03-02T05:54:17.441Z,-4.75
2023-03-02T05:56:44.025Z,-4.74
2023-03-02T05:59:10.579Z,-4.76
2023-03-02T06:01:37.164Z,-4.71
2023-03-02T06:04:03.846Z,-4.67
2023-03-02T06:06:32.324Z,-4.58
2023-03-02T06:09:00.429Z,-4.45
2023-03-02T06:11:27.005Z,-4.34
2023-03-02T06:13:53.517Z,-4.23
2023-03-02T06:16:20.104Z,-4.13
2023-03-02T06:18:46.914Z,-4.04
2023-03-02T06:21:13.435Z,-3.94
2023-03-02T06:23:40.078Z,-3.86
2023-03-02T06:26:12.016Z,-3.71
2023-03-02T06:28:51.529Z,-3.64
2023-03-02T06:31:19.067Z,-3.68
2023-03-02T06:33:45.634Z,-3.72
2023-03-02T06:36:12.698Z,-3.70
2023-03-02T06:38:39.326Z,-3.55
2023-03-02T06:41:05.858Z,-3.35
2023-03-02T06:43:32.448Z,-3.24
2023-03-02T06:46:00.751Z,-3.04
2023-03-02T06:48:27.426Z,-2.84
2023-03-02T06:50:54.301Z,-2.66
2023-03-02T06:53:22.966Z,-2.47
2023-03-02T06:55:50.551Z,-2.29
2023-03-02T06:58:17.488Z,-2.15
2023-03-02T07:00:44.058Z,-2.05
2023-03-02T07:03:10.657Z,-1.86
2023-03-02T07:05:37.577Z,-1.73
2023-03-02T07:08:04.598Z,-1.64
2023-03-02T07:10:31.205Z,-1.71
2023-03-02T07:12:57.768Z,-1.56
2023-03-02T07:15:24.698Z,-1.48
2023-03-02T07:17:52.976Z,-1.37
2023-03-02T07:20:19.716Z,-1.30
2023-03-02T07:22:46.446Z,-1.16
2023-03-02T07:25:13.450Z,-1.02
2023-03-02T07:27:40.407Z,-0.90
2023-03-02T07:30:08.269Z,-0.75
2023-03-02T07:32:34.949Z,-0.62
2023-03-02T07:35:01.562Z,-0.59
2023-03-02T07:37:28.066Z,-0.34
2023-03-02T07:39:54.582Z,-0.38
2023-03-02T07:42:21.376Z,-0.18
2023-03-02T07:44:48.130Z,-0.09
2023-03-02T07:47:14.681Z,0.17
2023-03-02T07:49:41.247Z,0.33
2023-03-02T07:52:07.839Z,0.41
2023-03-02T07:54:34.376Z,0.43
2023-03-02T07:57:01.222Z,0.69
2023-03-02T07:59:28.422Z,0.76
2023-03-02T08:01:56.019Z,0.59
2023-03-02T08:04:22.848Z,0.74
2023-03-02T08:06:49.458Z,0.98
2023-03-02T08:09:17.245Z,1.12
2023-03-02T08:11:44.910Z,1.31
2023-03-02T08:14:11.486Z,1.56
2023-03-02T08:16:39.374Z,1.72
2023-03-02T08:21:47.351Z,1.78
2023-03-02T08:24:13.875Z,1.87
2023-03-02T08:26:40.636Z,2.00
2023-03-02T08:29:07.216Z,2.15
2023-03-02T08:31:34.093Z,2.26
2023-03-02T08:34:00.872Z,2.38
2023-03-02T08:36:27.450Z,2.44
2023-03-02T08:38:54.679Z,2.65
2023-03-02T08:41:23.355Z,2.86
2023-03-02T08:43:50.536Z,2.89
2023-03-02T08:46:19.027Z,2.88
2023-03-02T08:48:46.394Z,3.00
2023-03-02T08:51:19.108Z,3.23
2023-03-02T08:53:47.526Z,3.37
2023-03-02T08:56:36.058Z,3.41
2023-03-02T08:59:05.961Z,3.61
2023-03-02T09:01:34.948Z,3.76
2023-03-02T09:04:03.041Z,3.79
2023-03-02T09:06:32.061Z,3.48
2023-03-02T09:08:58.790Z,3.33
2023-03-02T09:11:26.128Z,3.61
2023-03-02T09:13:53.227Z,3.91
2023-03-02T09:16:20.389Z,4.13
2023-03-02T09:18:48.026Z,4.17
2023-03-02T09:21:14.544Z,4.03
2023-03-02T09:23:41.159Z,3.94
2023-03-02T09:26:08.149Z,3.96
2023-03-02T09:28:36.117Z,4.21
2023-03-02T09:31:06.136Z,4.58
2023-03-02T09:33:33.003Z,4.77
2023-03-02T09:35:59.694Z,4.80
2023-03-02T09:38:26.558Z,4.92
2023-03-02T09:40:58.942Z,4.98
2023-03-02T09:43:31.294Z,5.02
2023-03-02T09:46:10.315Z,5.08
2023-03-02T09:48:43.295Z,5.23
2023-03-02T09:51:24.178Z,5.29
2023-03-02T09:54:14.050Z,5.35
2023-03-02T10:07:33.760Z,5.74
2023-03-02T13:40:55.647Z,6.16
2023-03-02T13:43:39.520Z,6.18
2023-03-02T13:46:12.028Z,6.08
2023-03-02T13:48:38.686Z,6.34
2023-03-02T13:51:18.365Z,6.53
2023-03-02T13:53:52.813Z,6.43
2023-03-02T13:59:17.977Z,6.65
2023-03-02T14:10:04.580Z,6.74
2023-03-02T14:12:33.644Z,6.77
2023-03-02T14:15:02.497Z,6.71
2023-03-02T14:17:29.532Z,6.63
2023-03-02T14:19:57.794Z,6.63
2023-03-02T14:22:26.814Z,6.66
2023-03-02T14:24:53.694Z,6.72
2023-03-02T14:27:20.572Z,6.78
2023-03-02T15:01:48.297Z,6.41
2023-03-02T15:04:14.813Z,6.30
2023-03-02T15:06:43.073Z,6.19
2023-03-02T15:09:11.965Z,6.01
2023-03-02T15:11:38.575Z,6.00
2023-03-02T15:14:05.179Z,6.02
2023-03-02T15:16:31.798Z,6.02
2023-03-02T15:18:59.006Z,6.10
2023-03-02T15:21:25.663Z,6.17
2023-03-02T15:26:34.247Z,6.25
2023-03-02T15:29:00.766Z,6.27
2023-03-02T15:31:28.339Z,6.21
2023-03-02T15:39:18.210Z,5.85
2023-03-02T15:41:44.754Z,5.83
2023-03-02T15:44:23.870Z,5.75
2023-03-02T15:46:53.030Z,5.61
2023-03-02T15:49:24.827Z,5.44
2023-03-02T15:51:52.929Z,5.34
2023-03-02T15:54:19.636Z,5.17
2023-03-02T15:56:49.625Z,4.97
2023-03-02T15:59:16.321Z,4.78
2023-03-02T16:01:42.837Z,4.61
2023-03-02T16:04:09.859Z,4.44
2023-03-02T16:06:36.448Z,4.26
2023-03-02T16:09:03.311Z,4.11
2023-03-02T16:11:29.955Z,3.87
2023-03-02T16:13:56.530Z,3.60
2023-03-02T16:16:23.239Z,3.43
2023-03-02T16:18:54.321Z,3.23
2023-03-02T16:21:21.824Z,3.04
2023-03-02T16:23:49.119Z,2.79
2023-03-02T16:26:21.190Z,2.65
2023-03-02T16:28:48.456Z,2.53
2023-03-02T16:31:18.211Z,2.39
2023-03-02T16:33:45.271Z,2.34
2023-03-02T16:36:12.348Z,2.21
2023-03-02T16:38:39.477Z,2.03
2023-03-02T16:41:19.716Z,1.92
2023-03-02T16:43:50.288Z,1.75
2023-03-02T16:46:18.037Z,1.61
2023-03-02T16:48:46.082Z,1.52
2023-03-02T16:51:13.411Z,1.43
2023-03-02T16:53:43.162Z,1.39
2023-03-02T16:56:11.070Z,1.33
2023-03-02T16:58:39.665Z,1.26
2023-03-02T17:01:08.585Z,1.12
2023-03-02T17:14:16.244Z,0.82
2023-03-02T17:16:42.813Z,0.81
2023-03-02T17:19:09.406Z,0.79
2023-03-02T17:21:36.032Z,0.67
2023-03-02T17:24:02.719Z,0.56
2023-03-02T17:26:29.262Z,0.47
2023-03-02T17:28:55.787Z,0.44
2023-03-02T17:31:22.427Z,0.42
2023-03-02T17:33:49.077Z,0.46
2023-03-02T17:36:15.833Z,0.56
2023-03-02T17:38:42.582Z,0.53
2023-03-02T17:41:10.864Z,0.48
2023-03-02T17:43:39.763Z,0.40
2023-03-02T17:46:15.313Z,0.37
2023-03-02T17:48:42.887Z,0.38
2023-03-02T17:51:11.781Z,0.34
2023-03-02T17:53:38.599Z,0.22
2023-03-02T17:56:05.487Z,0.22
2023-03-02T17:58:44.238Z,0.18
2023-03-02T18:01:12.998Z,0.13
2023-03-02T18:03:39.583Z,0.10
2023-03-02T18:06:06.488Z,0.06
2023-03-02T18:08:33.238Z,0.06
2023-03-02T18:11:00.565Z,0.01
2023-03-02T18:13:27.132Z,-0.04
2023-03-02T18:15:53.723Z,-0.13
2023-03-02T18:18:20.287Z,-0.18
2023-03-02T18:20:46.962Z,-0.17
2023-03-02T18:23:14.009Z,-0.21
2023-03-02T18:25:40.628Z,-0.21
2023-03-02T18:28:07.224Z,-0.21
2023-03-02T18:30:34.197Z,-0.21
2023-03-02T18:33:01.350Z,-0.19
2023-03-02T18:35:27.933Z,-0.15
2023-03-02T18:37:54.508Z,-0.19
2023-03-02T18:40:21.279Z,-0.24
2023-03-02T18:42:48.338Z,-0.25
2023-03-02T18:45:21.857Z,-0.22
2023-03-02T18:47:48.442Z,-0.15
2023-03-02T18:50:15.301Z,-0.14
2023-03-02T18:52:41.882Z,-0.12
2023-03-02T18:55:09.010Z,-0.15
2023-03-02T18:57:38.042Z,-0.06
2023-03-02T19:00:07.031Z,-0.05
2023-03-02T19:02:34.543Z,-0.04
2023-03-02T19:05:01.459Z,-0.06
2023-03-02T19:07:28.472Z,-0.04
2023-03-02T19:09:55.044Z,0.02
2023-03-02T19:12:21.665Z,0.15
2023-03-02T19:14:48.256Z,0.21
2023-03-02T19:17:15.172Z,0.29
2023-03-02T19:19:43.595Z,0.27
2023-03-02T19:22:10.554Z,0.32
2023-03-02T19:24:37.092Z,0.51
2023-03-02T19:27:03.844Z,0.64
2023-03-02T19:29:30.421Z,0.66
2023-03-02T19:31:56.979Z,0.69
2023-03-02T19:34:23.878Z,0.66
2023-03-02T19:36:50.640Z,0.63
2023-03-02T19:39:17.325Z,0.65
2023-03-02T19:41:43.931Z,0.73
2023-03-02T19:44:12.523Z,0.69
2023-03-02T19:46:39.747Z,0.62
2023-03-02T19:49:06.311Z,0.56
2023-03-02T19:51:32.893Z,0.48
2023-03-02T19:53:59.477Z,0.42
2023-03-02T19:56:30.390Z,0.41
2023-03-02T19:58:57.893Z,0.34
2023-03-02T20:01:25.793Z,0.35
2023-03-02T20:03:54.300Z,0.31
2023-03-02T20:06:23.294Z,0.17
2023-03-02T20:08:49.969Z,0.01
2023-03-02T20:11:17.354Z,-0.07
2023-03-02T20:13:45.319Z,-0.19
2023-03-02T20:16:14.143Z,-0.30
2023-03-02T20:18:42.253Z,-0.39
2023-03-02T20:21:08.924Z,-0.40
2023-03-02T20:23:35.537Z,-0.50
2023-03-02T20:26:02.940Z,-0.64
2023-03-02T20:28:32.914Z,-0.72
2023-03-02T20:31:04.505Z,-0.75
2023-03-02T20:33:36.763Z,-0.81
2023-03-02T20:36:04.957Z,-0.86
2023-03-02T20:38:39.544Z,-0.95
2023-03-02T20:41:07.380Z,-0.96
2023-03-02T20:43:34.246Z,-1.00
2023-03-02T20:46:01.597Z,-1.02
2023-03-02T20:48:28.839Z,-1.18
2023-03-02T20:50:55.978Z,-1.27
2023-03-02T20:53:23.203Z,-1.33
2023-03-02T20:55:49.929Z,-1.39
2023-03-02T20:58:17.247Z,-1.40
2023-03-02T21:00:43.845Z,-1.39
2023-03-02T21:03:10.609Z,-1.31
2023-03-02T21:05:40.346Z,-1.31
2023-03-02T21:08:08.371Z,-1.27
2023-03-02T21:10:37.711Z,-1.12
2023-03-02T21:13:05.695Z,-1.15
2023-03-02T21:15:32.638Z,-1.23
2023-03-02T21:17:59.637Z,-1.29
2023-03-02T21:20:29.950Z,-1.42
2023-03-02T21:22:56.535Z,-1.54
2023-03-02T21:25:23.474Z,-1.57
2023-03-02T21:27:49.984Z,-1.62
2023-03-02T21:30:22.626Z,-1.62
2023-03-02T21:32:49.670Z,-1.52
2023-03-02T21:35:21.842Z,-1.49
2023-03-02T21:37:51.424Z,-1.43
2023-03-02T21:40:22.536Z,-1.35
2023-03-02T21:42:49.115Z,-1.30
2023-03-02T21:45:15.786Z,-1.36
2023-03-02T21:47:43.222Z,-1.37
2023-03-02T21:50:14.087Z,-1.42
2023-03-02T21:52:41.077Z,-1.50
2023-03-02T21:55:08.596Z,-1.55
2023-03-02T21:57:35.408Z,-1.46
2023-03-02T22:00:04.523Z,-1.45
2023-03-02T22:02:32.390Z,-1.52
2023-03-02T22:04:59.153Z,-1.50
2023-03-02T22:07:25.665Z,-1.44
2023-03-02T22:09:52.756Z,-1.41
2023-03-02T22:12:22.396Z,-1.44
2023-03-02T22:14:48.999Z,-1.43
2023-03-02T22:17:18.955Z,-1.44
2023-03-02T22:19:45.694Z,-1.42
2023-03-02T22:22:16.261Z,-1.39
2023-03-02T22:24:49.862Z,-1.37
2023-03-02T22:27:34.953Z,-1.32
2023-03-02T22:30:02.851Z,-1.29
2023-03-02T22:32:31.444Z,-1.27
2023-03-02T22:35:00.664Z,-1.21
2023-03-02T22:37:34.053Z,-1.06
2023-03-02T22:40:27.840Z,-1.00
2023-03-02T22:43:06.291Z,-0.99
2023-03-02T22:45:32.836Z,-1.02
2023-03-02T22:50:34.643Z,-0.79
2023-03-02T22:53:16.007Z,-0.72
2023-03-02T22:55:43.304Z,-0.68
2023-03-02T22:58:29.864Z,-0.63
2023-03-02T23:00:57.919Z,-0.65
2023-03-02T23:03:33.914Z,-0.65
2023-03-02T23:06:00.438Z,-0.64
2023-03-02T23:08:29.320Z,-0.73
2023-03-02T23:10:58.541Z,-0.74
2023-03-02T23:13:31.044Z,-0.80
2023-03-02T23:15:57.783Z,-0.80
2023-03-02T23:18:28.002Z,-0.83
2023-03-02T23:20:55.329Z,-0.86
2023-03-02T23:23:24.409Z,-0.89
2023-03-02T23:25:51.035Z,-0.96
2023-03-02T23:28:17.658Z,-1.09
2023-03-02T23:30:44.211Z,-1.18
2023-03-02T23:33:11.000Z,-1.23
2023-03-02T23:35:37.566Z,-1.29
2023-03-02T23:38:04.094Z,-1.31
2023-03-02T23:40:30.662Z,-1.32
2023-03-02T23:45:32.608Z,-1.34
2023-03-02T23:47:59.272Z,-1.35
2023-03-02T23:50:25.814Z,-1.32
2023-03-02T23:52:52.354Z,-1.28
2023-03-02T23:55:19.008Z,-1.30
2023-03-02T23:57:45.528Z,-1.39
